| time (UTC) | temp F | wind direction | speed knots | gust knots | rain 1hr in | rain 24hr in | rain mn in | humidity % | barometer mb |
| 20260503020052 | 65 | 116 | 4.3 | 0.0 | 0.00 | 0.00 | 0.00 | 36 | 1013.6 |
| 20260503014603 | 65 | 116 | 5.2 | 0.0 | 0.00 | 0.00 | 0.00 | 35 | 1013.5 |
| 20260503013053 | 65 | 109 | 4.3 | 0.0 | 0.00 | 0.00 | 0.00 | 36 | 1013.6 |
| 20260503011557 | 66 | 119 | 7.8 | 0.0 | 0.00 | 0.00 | 0.00 | 35 | 1013.6 |
| 20260503010105 | 67 | 104 | 3.5 | 0.0 | 0.00 | 0.00 | 0.00 | 33 | 1013.6 |
| 20260503004550 | 67 | 104 | 5.2 | 0.0 | 0.00 | 0.00 | 0.00 | 33 | 1013.7 |
| 20260503003057 | 68 | 96 | 7.0 | 0.0 | 0.00 | 0.00 | 0.00 | 33 | 1013.7 |
| 20260503001546 | 67 | 90 | 0.9 | 0.0 | 0.00 | 0.00 | 0.00 | 33 | 1014.0 |
| 20260503000052 | 67 | 308 | 1.7 | 0.0 | 0.00 | 0.00 | 0.00 | 31 | 1014.1 |
| 20260502234545 | 67 | 301 | 0.9 | 0.0 | 0.00 | 0.00 | 0.00 | 32 | 1014.2 |
| 20260502233044 | 67 | 294 | 4.3 | 0.0 | 0.00 | 0.00 | 0.00 | 31 | 1014.2 |
| 20260502231543 | 68 | 192 | 0.0 | 0.0 | 0.00 | 0.00 | 0.00 | 31 | 1014.3 |
| 20260502230041 | 68 | 192 | 3.5 | 0.0 | 0.00 | 0.00 | 0.00 | 31 | 1014.3 |
| 20260502224540 | 68 | 196 | 1.7 | 0.0 | 0.00 | 0.00 | 0.00 | 31 | 1014.5 |
| 20260502223038 | 69 | 268 | 4.3 | 0.0 | 0.00 | 0.00 | 0.00 | 30 | 1014.8 |
| 20260502221537 | 70 | 327 | 2.6 | 0.0 | 0.00 | 0.00 | 0.00 | 30 | 1014.9 |
| 20260502220034 | 70 | 19 | 3.5 | 0.0 | 0.00 | 0.00 | 0.00 | 30 | 1015.2 |
| 20260502214534 | 67 | 86 | 3.5 | 0.0 | 0.00 | 0.00 | 0.00 | 33 | 1015.4 |
| 20260502213040 | 67 | 55 | 1.7 | 0.0 | 0.00 | 0.00 | 0.00 | 34 | 1015.5 |
| 20260502211532 | 67 | 267 | 3.5 | 0.0 | 0.00 | 0.00 | 0.00 | 33 | 1015.8 |
| 20260502210031 | 68 | 287 | 1.7 | 0.0 | 0.00 | 0.00 | 0.00 | 33 | 1016.0 |
| 20260502204530 | 68 | 32 | 1.7 | 0.0 | 0.00 | 0.00 | 0.00 | 33 | 1016.1 |
| 20260502203031 | 68 | 281 | 5.2 | 0.0 | 0.00 | 0.00 | 0.00 | 33 | 1016.3 |
| 20260502201531 | 68 | 331 | 1.7 | 0.0 | 0.00 | 0.00 | 0.00 | 34 | 1016.4 |
| 20260502200024 | 66 | 286 | 3.5 | 0.0 | 0.00 | 0.00 | 0.00 | 36 | 1016.5 |
| 20260502194522 | 65 | 15 | 5.2 | 0.0 | 0.00 | 0.00 | 0.00 | 38 | 1016.6 |
| 20260502193021 | 64 | 61 | 6.1 | 0.0 | 0.00 | 0.00 | 0.00 | 38 | 1016.8 |
| 20260502191523 | 64 | 285 | 2.6 | 0.0 | 0.00 | 0.00 | 0.00 | 38 | 1017.1 |
| 20260502190023 | 64 | 273 | 3.5 | 0.0 | 0.00 | 0.00 | 0.00 | 37 | 1017.1 |
| 20260502184525 | 64 | 344 | 4.3 | 0.0 | 0.00 | 0.00 | 0.00 | 38 | 1017.2 |
| 20260502183019 | 64 | 287 | 0.9 | 0.0 | 0.00 | 0.00 | 0.00 | 37 | 1017.1 |
| 20260502181518 | 65 | 271 | 3.5 | 0.0 | 0.00 | 0.00 | 0.00 | 36 | 1017.2 |
| 20260502163006 | 62 | 293 | 1.7 | 0.0 | 0.00 | 0.00 | 0.00 | 42 | 1017.7 |
| 20260502161559 | 61 | 300 | 3.5 | 0.0 | 0.00 | 0.00 | 0.00 | 44 | 1017.9 |
| 20260502151552 | 56 | 304 | 7.0 | 0.0 | 0.00 | 0.00 | 0.00 | 51 | 1018.3 |
| 20260502123003 | 44 | 319 | 5.2 | 0.0 | 0.00 | 0.00 | 0.00 | 62 | 1018.2 |
| 20260502121559 | 43 | 342 | 5.2 | 0.0 | 0.00 | 0.00 | 0.00 | 61 | 1017.8 |
| 20260502120105 | 42 | 360 | 4.3 | 0.0 | 0.00 | 0.00 | 0.00 | 61 | 1017.7 |
| 20260502114556 | 43 | 318 | 3.5 | 0.0 | 0.00 | 0.00 | 0.00 | 58 | 1017.7 |
| 20260502113052 | 44 | 317 | 2.6 | 0.0 | 0.00 | 0.00 | 0.00 | 55 | 1017.5 |
| 20260502111548 | 45 | 307 | 2.6 | 0.0 | 0.00 | 0.00 | 0.00 | 56 | 1017.3 |
| 20260502110046 | 46 | 82 | 0.0 | 0.0 | 0.00 | 0.00 | 0.00 | 54 | 1017.0 |
| 20260502104544 | 47 | 82 | 0.0 | 0.0 | 0.00 | 0.00 | 0.00 | 52 | 1016.7 |
| 20260502103042 | 48 | 82 | 3.5 | 0.0 | 0.00 | 0.00 | 0.00 | 52 | 1016.6 |
| 20260502101544 | 46 | 33 | 3.5 | 0.0 | 0.00 | 0.00 | 0.00 | 57 | 1016.2 |
| 20260502071517 | 50 | 294 | 5.2 | 0.0 | 0.00 | 0.00 | 0.00 | 45 | 1015.4 |
| 20260502070015 | 49 | 304 | 0.0 | 0.0 | 0.00 | 0.00 | 0.00 | 42 | 1015.4 |
| 20260502064531 | 49 | 304 | 2.6 | 0.0 | 0.00 | 0.00 | 0.00 | 43 | 1015.2 |
| 20260502063012 | 48 | 297 | 3.5 | 0.0 | 0.00 | 0.00 | 0.00 | 46 | 1015.3 |
| 20260502061507 | 48 | 269 | 0.0 | 0.0 | 0.00 | 0.00 | 0.00 | 43 | 1015.3 |
| 20260502060006 | 48 | 323 | 4.3 | 0.0 | 0.00 | 0.00 | 0.00 | 42 | 1015.2 |
| 20260502054504 | 49 | 330 | 5.2 | 0.0 | 0.00 | 0.00 | 0.00 | 40 | 1015.0 |
| 20260502053003 | 50 | 302 | 5.2 | 0.0 | 0.00 | 0.00 | 0.00 | 38 | 1015.0 |
| 20260502051503 | 52 | 301 | 4.3 | 0.0 | 0.00 | 0.00 | 0.00 | 36 | 1014.9 |
| 20260502050001 | 54 | 293 | 5.2 | 0.0 | 0.00 | 0.00 | 0.00 | 34 | 1014.8 |
| 20260502044500 | 55 | 299 | 6.1 | 0.0 | 0.00 | 0.00 | 0.00 | 32 | 1014.8 |
| 20260502043101 | 57 | 292 | 6.1 | 0.0 | 0.00 | 0.00 | 0.00 | 31 | 1014.7 |
| 20260502041559 | 57 | 280 | 6.1 | 0.0 | 0.00 | 0.00 | 0.00 | 31 | 1014.6 |
| 20260502040107 | 56 | 277 | 4.3 | 0.0 | 0.00 | 0.00 | 0.00 | 31 | 1014.6 |
| 20260502034558 | 59 | 239 | 3.5 | 0.0 | 0.00 | 0.00 | 0.00 | 26 | 1014.5 |
| 20260502033059 | 60 | 286 | 5.2 | 0.0 | 0.00 | 0.00 | 0.00 | 26 | 1014.4 |
| 20260502031629 | 63 | 290 | 4.3 | 0.0 | 0.00 | 0.00 | 0.00 | 23 | 1014.2 |
| 20260502030100 | 65 | 275 | 6.1 | 0.0 | 0.00 | 0.00 | 0.00 | 23 | 1014.0 |
| 20260502024556 | 66 | 269 | 6.1 | 0.0 | 0.00 | 0.00 | 0.00 | 21 | 1013.8 |
| 20260502023058 | 68 | 273 | 6.1 | 0.0 | 0.00 | 0.00 | 0.00 | 20 | 1013.7 |
| 20260502021555 | 69 | 256 | 7.0 | 0.0 | 0.00 | 0.00 | 0.00 | 19 | 1013.5 |